Terminal Aerodrome Forecast
Issued by NWS

Home | Current Version | Previous Version | Text Only | Print | Product List | Glossary On
Versions: 1 2 3 4 5 6 7 8 9 10 11 12 13 14 15
906
FTUS46 KSEW 262323
TAFPAE
TAF
KPAE 262323Z 2700/2724 35008KT P6SM FEW050 SCT250
     FM271100 17005KT P6SM OVC007
     FM271900 23005KT P6SM SCT015 BKN050
     FM272100 28006KT P6SM SCT050=

USA.gov is the U.S. government's official web portal to all federal, state and local government web resources and services.